Time;durP1;ratioP1;P1;durP2;ratioP2;P2;SDS_P1;SDS_P2;PMS_P1;PMS_P2;Temp;Humidity;BMP_temperature;BMP_pressure;BME280_temperature;BME280_humidity;BME280_pressure;Samples;Min_cycle;Max_cycle;Signal;HPM_P1;HPM_P2
2020/12/30 00:02:19;;;;;;;8.30;3.40;;;;;;;;;;5053247;28;20477;-74
2020/12/30 00:04:45;;;;;;;6.13;3.20;;;;;;;;;;5052305;28;20517;-74
2020/12/30 00:07:11;;;;;;;5.23;3.00;;;;;;;;;;5053749;28;20398;-74
2020/12/30 00:09:37;;;;;;;6.67;3.27;;;;;;;;;;5052751;28;20478;-74
2020/12/30 00:12:03;;;;;;;6.40;3.33;;;;;;;;;;5053634;28;20413;-74
2020/12/30 00:14:29;;;;;;;3.57;2.70;;;;;;;;;;5052762;28;20418;-74
2020/12/30 00:16:55;;;;;;;3.67;2.37;;;;;;;;;;5053759;28;20451;-74
2020/12/30 00:19:21;;;;;;;6.13;3.03;;;;;;;;;;5042600;28;20914;-75
2020/12/30 00:21:47;;;;;;;4.90;3.43;;;;;;;;;;5033962;28;20909;-74
2020/12/30 00:24:13;;;;;;;5.10;3.07;;;;;;;;;;5042591;28;20457;-74
2020/12/30 00:26:39;;;;;;;3.70;2.10;;;;;;;;;;5053719;28;20455;-74
2020/12/30 00:29:05;;;;;;;4.97;3.33;;;;;;;;;;5052536;28;20414;-74
2020/12/30 00:31:31;;;;;;;6.37;2.90;;;;;;;;;;5053490;28;20437;-74
2020/12/30 00:33:57;;;;;;;3.40;2.47;;;;;;;;;;5052548;28;20426;-74
2020/12/30 00:36:23;;;;;;;4.97;3.30;;;;;;;;;;5053461;28;20452;-74
2020/12/30 00:38:49;;;;;;;4.80;3.17;;;;;;;;;;5052381;28;20985;-74
2020/12/30 00:41:15;;;;;;;3.57;3.00;;;;;;;;;;5053170;28;20454;-74
2020/12/30 00:43:42;;;;;;;3.07;2.50;;;;;;;;;;5052044;28;20875;-74
2020/12/30 00:46:14;;;;;;;5.20;3.40;;;;;;;;;;5053204;28;20401;-74
2020/12/30 00:48:40;;;;;;;4.60;3.03;;;;;;;;;;5052517;28;20781;-74
2020/12/30 00:51:06;;;;;;;4.43;2.77;;;;;;;;;;5053658;28;20960;-74
2020/12/30 00:53:32;;;;;;;4.47;2.70;;;;;;;;;;5049071;28;20509;-74
2020/12/30 00:55:58;;;;;;;4.23;3.30;;;;;;;;;;5034207;28;20438;-77
2020/12/30 00:58:24;;;;;;;5.80;3.70;;;;;;;;;;5047345;28;20795;-74
2020/12/30 01:00:50;;;;;;;7.33;3.23;;;;;;;;;;5052695;28;20453;-74
2020/12/30 01:03:16;;;;;;;7.83;3.67;;;;;;;;;;5051448;28;20418;-75
2020/12/30 01:05:42;;;;;;;4.67;3.07;;;;;;;;;;5052862;28;20441;-74
2020/12/30 01:08:08;;;;;;;4.73;3.03;;;;;;;;;;5053028;28;20800;-74
2020/12/30 01:10:34;;;;;;;9.07;3.70;;;;;;;;;;5033626;28;20525;-74
2020/12/30 01:12:59;;;;;;;6.00;3.20;;;;;;;;;;5033941;28;20879;-74
2020/12/30 01:15:25;;;;;;;6.80;3.20;;;;;;;;;;5053187;28;20414;-74
2020/12/30 01:17:52;;;;;;;7.00;3.13;;;;;;;;;;5056952;28;20390;-74
2020/12/30 01:20:18;;;;;;;5.73;3.40;;;;;;;;;;5055782;28;20559;-74
2020/12/30 01:22:44;;;;;;;6.27;3.77;;;;;;;;;;5056699;28;20428;-75
2020/12/30 01:25:10;;;;;;;6.03;3.60;;;;;;;;;;5056067;28;20452;-74
2020/12/30 01:27:36;;;;;;;3.47;2.83;;;;;;;;;;5056687;28;20485;-74
2020/12/30 01:30:02;;;;;;;3.70;2.80;;;;;;;;;;5055743;28;20521;-74
2020/12/30 01:32:28;;;;;;;4.63;2.93;;;;;;;;;;5056398;28;20409;-74
2020/12/30 01:34:54;;;;;;;5.33;3.30;;;;;;;;;;5055361;28;20441;-75
2020/12/30 01:37:20;;;;;;;7.20;3.87;;;;;;;;;;5055912;28;20429;-74
2020/12/30 01:39:46;;;;;;;4.50;3.13;;;;;;;;;;5055318;28;20446;-74
2020/12/30 01:42:12;;;;;;;6.47;3.37;;;;;;;;;;5056348;28;20461;-75
2020/12/30 01:44:38;;;;;;;3.70;2.97;;;;;;;;;;5055465;28;20447;-74
2020/12/30 01:47:04;;;;;;;7.63;3.10;;;;;;;;;;5056088;28;20776;-74
2020/12/30 01:49:30;;;;;;;4.70;3.80;;;;;;;;;;5055044;28;20504;-74
2020/12/30 01:51:57;;;;;;;3.80;3.20;;;;;;;;;;5055011;28;20448;-74
2020/12/30 01:54:23;;;;;;;5.07;3.33;;;;;;;;;;5054374;28;20422;-74
2020/12/30 01:56:49;;;;;;;5.50;3.50;;;;;;;;;;5054785;28;20424;-75
2020/12/30 01:59:17;;;;;;;7.93;3.10;;;;;;;;;;5057006;28;20461;-74
2020/12/30 02:01:44;;;;;;;4.87;4.00;;;;;;;;;;5055876;28;20560;-74
2020/12/30 02:04:10;;;;;;;3.80;3.30;;;;;;;;;;5055340;28;20421;-74
2020/12/30 02:06:37;;;;;;;3.93;3.40;;;;;;;;;;5056162;28;20455;-75
2020/12/30 02:09:04;;;;;;;5.87;3.60;;;;;;;;;;5055321;28;20881;-74
2020/12/30 02:11:30;;;;;;;5.33;3.20;;;;;;;;;;5056006;28;20468;-74
2020/12/30 02:14:00;;;;;;;4.27;2.80;;;;;;;;;;5054850;28;20565;-73
2020/12/30 02:16:26;;;;;;;4.10;3.20;;;;;;;;;;5055857;28;20435;-74
2020/12/30 02:18:52;;;;;;;3.80;2.40;;;;;;;;;;5054721;28;20477;-74
2020/12/30 02:21:18;;;;;;;4.03;2.97;;;;;;;;;;5055822;28;20549;-75
2020/12/30 02:23:45;;;;;;;5.07;2.73;;;;;;;;;;5054853;28;20402;-74
2020/12/30 02:26:11;;;;;;;3.30;2.33;;;;;;;;;;5054765;28;20409;-74
2020/12/30 02:28:37;;;;;;;6.43;3.60;;;;;;;;;;5055728;28;20883;-75
2020/12/30 02:31:03;;;;;;;5.77;3.67;;;;;;;;;;5054494;28;20456;-74
2020/12/30 02:33:29;;;;;;;6.77;3.50;;;;;;;;;;5054819;28;20501;-74
2020/12/30 02:35:55;;;;;;;4.70;3.40;;;;;;;;;;5055198;28;20421;-74
2020/12/30 02:38:24;;;;;;;4.40;2.57;;;;;;;;;;5055893;28;20402;-74
2020/12/30 02:40:50;;;;;;;6.03;2.77;;;;;;;;;;5054214;28;20485;-74
2020/12/30 02:43:16;;;;;;;7.47;3.40;;;;;;;;;;5054530;28;20818;-74
2020/12/30 02:45:42;;;;;;;4.70;3.13;;;;;;;;;;5054423;28;20533;-74
2020/12/30 02:48:08;;;;;;;3.60;3.00;;;;;;;;;;5055372;28;20406;-74
2020/12/30 02:50:34;;;;;;;3.07;2.27;;;;;;;;;;5053433;28;20449;-73
2020/12/30 02:53:00;;;;;;;5.63;3.10;;;;;;;;;;5053255;28;20915;-74
2020/12/30 02:55:26;;;;;;;6.73;3.57;;;;;;;;;;5053809;28;20499;-74
2020/12/30 02:57:52;;;;;;;6.60;3.60;;;;;;;;;;5054049;28;20430;-73
2020/12/30 03:00:21;;;;;;;4.40;3.77;;;;;;;;;;5051582;28;20513;-73
2020/12/30 03:02:47;;;;;;;5.07;3.83;;;;;;;;;;5055204;28;20413;-74
2020/12/30 03:05:13;;;;;;;3.97;3.00;;;;;;;;;;5054611;28;20398;-74
2020/12/30 03:07:39;;;;;;;3.83;2.90;;;;;;;;;;5054856;28;20502;-74
2020/12/30 03:10:05;;;;;;;6.13;3.53;;;;;;;;;;5053766;28;20430;-74
2020/12/30 03:12:31;;;;;;;4.07;2.93;;;;;;;;;;5053369;28;20417;-74
2020/12/30 03:14:57;;;;;;;6.47;4.00;;;;;;;;;;5054173;28;20909;-75
2020/12/30 03:17:23;;;;;;;5.90;3.83;;;;;;;;;;5053649;28;20437;-74
2020/12/30 03:19:49;;;;;;;4.03;3.23;;;;;;;;;;5054521;28;20421;-74
2020/12/30 03:22:15;;;;;;;3.90;3.43;;;;;;;;;;5053876;28;20544;-74
2020/12/30 03:24:41;;;;;;;8.37;3.70;;;;;;;;;;5053528;28;20410;-75
2020/12/30 03:27:07;;;;;;;4.80;4.13;;;;;;;;;;5053554;28;20425;-74
2020/12/30 03:29:33;;;;;;;4.07;3.67;;;;;;;;;;5054548;28;20394;-74
2020/12/30 03:31:59;;;;;;;6.57;3.50;;;;;;;;;;5053497;28;20942;-74
2020/12/30 03:34:25;;;;;;;4.73;3.43;;;;;;;;;;5054462;28;20489;-74
2020/12/30 03:36:51;;;;;;;5.33;4.30;;;;;;;;;;5040330;28;20498;-74
2020/12/30 03:39:17;;;;;;;6.00;4.10;;;;;;;;;;5036366;28;20417;-74
2020/12/30 03:41:43;;;;;;;6.60;4.20;;;;;;;;;;5053266;28;20515;-74
2020/12/30 03:44:09;;;;;;;4.83;3.23;;;;;;;;;;5054225;28;20423;-74
2020/12/30 03:46:35;;;;;;;4.90;3.20;;;;;;;;;;5053260;28;20850;-74
2020/12/30 03:49:01;;;;;;;6.23;4.20;;;;;;;;;;5054020;28;20401;-74
2020/12/30 03:51:27;;;;;;;4.30;3.50;;;;;;;;;;5052957;28;20449;-74
2020/12/30 03:53:53;;;;;;;6.63;3.80;;;;;;;;;;5054608;28;20430;-74
2020/12/30 03:56:19;;;;;;;6.13;3.87;;;;;;;;;;5052886;28;20918;-74
2020/12/30 03:58:45;;;;;;;6.77;5.23;;;;;;;;;;5052826;28;20430;-74
2020/12/30 04:01:11;;;;;;;5.13;3.60;;;;;;;;;;5051100;28;20953;-74
2020/12/30 04:03:37;;;;;;;3.90;3.60;;;;;;;;;;5053232;28;20494;-74
2020/12/30 04:06:03;;;;;;;6.10;3.50;;;;;;;;;;5052913;28;20425;-74
2020/12/30 04:08:29;;;;;;;6.70;3.70;;;;;;;;;;5054433;28;20409;-74
2020/12/30 04:10:55;;;;;;;6.20;3.90;;;;;;;;;;5052563;28;20937;-74
2020/12/30 04:13:21;;;;;;;7.83;4.47;;;;;;;;;;5053650;28;20437;-74
2020/12/30 04:15:47;;;;;;;6.87;3.70;;;;;;;;;;5052972;28;20516;-74
2020/12/30 04:18:13;;;;;;;5.70;3.30;;;;;;;;;;5053530;28;20406;-74
2020/12/30 04:20:39;;;;;;;6.57;4.23;;;;;;;;;;5052397;28;20499;-74
2020/12/30 04:23:05;;;;;;;3.80;3.33;;;;;;;;;;5053603;28;20408;-74
2020/12/30 04:25:31;;;;;;;8.60;4.20;;;;;;;;;;5053689;28;20397;-74
2020/12/30 04:27:57;;;;;;;5.93;3.77;;;;;;;;;;5052141;28;20433;-74
2020/12/30 04:30:23;;;;;;;8.33;4.03;;;;;;;;;;5047231;28;20807;-78
2020/12/30 04:32:50;;;;;;;5.90;3.87;;;;;;;;;;5051504;28;20430;-75
2020/12/30 04:35:16;;;;;;;4.40;3.00;;;;;;;;;;5053547;28;20414;-74
2020/12/30 04:37:42;;;;;;;4.70;3.20;;;;;;;;;;5052531;28;20508;-75
2020/12/30 04:40:08;;;;;;;6.43;3.27;;;;;;;;;;5053120;28;20414;-75
2020/12/30 04:42:36;;;;;;;5.37;3.60;;;;;;;;;;5052374;28;20982;-75
2020/12/30 04:45:06;;;;;;;4.17;3.03;;;;;;;;;;5052098;28;20398;-74
2020/12/30 04:47:32;;;;;;;4.20;3.50;;;;;;;;;;5051963;28;20449;-75
2020/12/30 04:49:59;;;;;;;5.10;3.00;;;;;;;;;;5053091;28;20418;-75
2020/12/30 04:52:26;;;;;;;6.50;3.43;;;;;;;;;;5050429;28;20426;-74
2020/12/30 04:54:53;;;;;;;3.83;2.83;;;;;;;;;;5053057;28;20455;-74
2020/12/30 04:57:24;;;;;;;4.23;3.23;;;;;;;;;;5051066;28;20434;-75
2020/12/30 04:59:53;;;;;;;4.70;3.17;;;;;;;;;;5053094;28;20531;-75
2020/12/30 05:02:23;;;;;;;3.10;2.43;;;;;;;;;;5038264;28;20458;-75
2020/12/30 05:04:49;;;;;;;4.30;3.03;;;;;;;;;;5050301;28;20461;-74
2020/12/30 05:07:15;;;;;;;4.00;3.33;;;;;;;;;;5051963;28;20413;-74
2020/12/30 05:09:43;;;;;;;3.90;2.43;;;;;;;;;;5052489;28;20418;-74
2020/12/30 05:12:14;;;;;;;3.67;2.57;;;;;;;;;;5037416;28;20518;-74
2020/12/30 05:14:40;;;;;;;7.90;3.73;;;;;;;;;;5053102;28;20409;-74
2020/12/30 05:17:07;;;;;;;3.47;2.87;;;;;;;;;;5051969;28;20432;-74
2020/12/30 05:19:33;;;;;;;5.23;3.40;;;;;;;;;;5052756;28;20410;-74
2020/12/30 05:21:59;;;;;;;8.03;2.90;;;;;;;;;;5050845;28;20456;-74
2020/12/30 05:24:26;;;;;;;8.17;4.23;;;;;;;;;;5036782;28;20916;-74
2020/12/30 05:26:52;;;;;;;5.80;2.70;;;;;;;;;;5033713;28;20398;-74
2020/12/30 05:29:19;;;;;;;3.97;2.40;;;;;;;;;;5045732;28;20479;-74
2020/12/30 05:31:54;;;;;;;3.80;2.83;;;;;;;;;;5052760;28;20900;-74
2020/12/30 05:34:21;;;;;;;2.40;2.00;;;;;;;;;;5051711;28;20475;-74
2020/12/30 05:36:48;;;;;;;4.47;2.03;;;;;;;;;;5052707;28;20420;-74
2020/12/30 05:39:19;;;;;;;4.47;2.20;;;;;;;;;;5051565;28;20513;-74
2020/12/30 05:41:45;;;;;;;2.50;1.70;;;;;;;;;;5052873;28;20482;-74
2020/12/30 05:44:18;;;;;;;5.60;1.80;;;;;;;;;;5051979;28;20425;-74
2020/12/30 05:46:44;;;;;;;3.27;2.07;;;;;;;;;;5052848;28;20398;-74
2020/12/30 05:49:10;;;;;;;2.50;2.00;;;;;;;;;;5051458;28;20430;-74
2020/12/30 05:51:37;;;;;;;3.87;2.17;;;;;;;;;;5051504;28;20521;-74
2020/12/30 05:54:09;;;;;;;3.03;2.00;;;;;;;;;;5051457;28;20426;-74
2020/12/30 05:56:36;;;;;;;2.67;2.10;;;;;;;;;;5052994;28;20769;-74
2020/12/30 05:59:03;;;;;;;2.27;2.07;;;;;;;;;;5051485;28;20866;-74
2020/12/30 06:01:29;;;;;;;4.37;2.17;;;;;;;;;;5055797;28;20497;-74
2020/12/30 06:03:56;;;;;;;2.97;2.00;;;;;;;;;;5056910;28;20425;-74
2020/12/30 06:06:22;;;;;;;2.30;1.60;;;;;;;;;;5055154;28;20418;-74
2020/12/30 06:08:49;;;;;;;4.10;1.90;;;;;;;;;;5055510;28;20442;-74
2020/12/30 06:11:25;;;;;;;3.63;2.13;;;;;;;;;;5056399;28;20437;-74
2020/12/30 06:13:53;;;;;;;2.83;2.03;;;;;;;;;;5055315;28;20425;-74
2020/12/30 06:16:23;;;;;;;14.33;2.37;;;;;;;;;;5056412;28;20411;-74
2020/12/30 06:18:50;;;;;;;3.47;1.93;;;;;;;;;;5054055;28;20430;-74
2020/12/30 06:21:16;;;;;;;3.60;2.27;;;;;;;;;;5055696;28;20821;-74
2020/12/30 06:23:43;;;;;;;4.43;2.07;;;;;;;;;;5054767;28;20487;-74
2020/12/30 06:26:18;;;;;;;2.47;1.67;;;;;;;;;;5054896;28;20417;-74
2020/12/30 06:28:48;;;;;;;5.93;2.37;;;;;;;;;;5054622;28;20444;-74
2020/12/30 06:31:15;;;;;;;6.43;2.20;;;;;;;;;;5056289;28;20483;-74
2020/12/30 06:33:41;;;;;;;3.30;2.23;;;;;;;;;;5055174;28;20419;-74
2020/12/30 06:36:07;;;;;;;3.43;1.90;;;;;;;;;;5055862;28;20489;-74
2020/12/30 06:38:33;;;;;;;4.20;2.70;;;;;;;;;;5054851;28;20457;-74
2020/12/30 06:41:00;;;;;;;3.43;1.83;;;;;;;;;;5055256;28;20461;-74
2020/12/30 06:43:42;;;;;;;3.63;2.43;;;;;;;;;;5052787;28;20417;-74
2020/12/30 06:46:11;;;;;;;4.33;1.83;;;;;;;;;;5055589;28;20405;-74
2020/12/30 06:48:56;;;;;;;2.77;2.37;;;;;;;;;;5055025;28;20422;-74
2020/12/30 06:51:23;;;;;;;3.70;2.70;;;;;;;;;;5055455;28;20439;-74
2020/12/30 06:53:50;;;;;;;4.03;2.30;;;;;;;;;;5054350;28;20465;-74
2020/12/30 06:56:16;;;;;;;2.07;1.80;;;;;;;;;;5055788;28;20509;-74
2020/12/30 06:58:43;;;;;;;3.10;2.07;;;;;;;;;;5053981;28;20931;-74
2020/12/30 07:01:10;;;;;;;4.07;2.63;;;;;;;;;;5054801;28;20552;-74
2020/12/30 07:03:36;;;;;;;5.17;2.60;;;;;;;;;;5054982;28;20452;-75
2020/12/30 07:06:23;;;;;;;3.77;2.50;;;;;;;;;;5051216;28;20505;-73
2020/12/30 07:08:49;;;;;;;4.23;3.17;;;;;;;;;;5030550;28;20439;-74
2020/12/30 07:11:35;;;;;;;4.10;1.90;;;;;;;;;;5054308;28;20529;-74
2020/12/30 07:14:01;;;;;;;4.10;2.67;;;;;;;;;;5052759;28;20441;-73
2020/12/30 07:16:32;;;;;;;4.47;2.10;;;;;;;;;;5054909;28;20875;-74
2020/12/30 07:18:58;;;;;;;2.90;1.80;;;;;;;;;;5054166;28;20749;-74
2020/12/30 07:21:24;;;;;;;3.23;2.07;;;;;;;;;;5054807;28;20552;-75
2020/12/30 07:23:51;;;;;;;3.27;2.60;;;;;;;;;;5054899;28;20941;-73
2020/12/30 07:26:18;;;;;;;2.60;2.00;;;;;;;;;;5054473;28;20835;-74
2020/12/30 07:28:45;;;;;;;2.83;2.00;;;;;;;;;;5054664;28;20402;-74
2020/12/30 07:31:12;;;;;;;2.20;1.57;;;;;;;;;;5053461;28;20448;-74
2020/12/30 07:33:38;;;;;;;3.03;2.53;;;;;;;;;;5052580;28;20422;-74
2020/12/30 07:36:08;;;;;;;2.70;2.20;;;;;;;;;;5051484;28;20425;-68
2020/12/30 07:38:35;;;;;;;5.57;2.33;;;;;;;;;;5052802;28;20782;-69
2020/12/30 07:41:10;;;;;;;2.70;1.90;;;;;;;;;;5053150;28;20966;-70
2020/12/30 07:43:49;;;;;;;6.77;2.60;;;;;;;;;;5054233;28;20418;-69
2020/12/30 07:46:24;;;;;;;8.73;2.30;;;;;;;;;;5053875;28;20430;-69
2020/12/30 07:48:50;;;;;;;3.00;2.27;;;;;;;;;;5054289;28;20453;-69
2020/12/30 07:51:16;;;;;;;9.43;2.70;;;;;;;;;;5052767;28;20941;-69
2020/12/30 07:53:51;;;;;;;2.97;2.13;;;;;;;;;;5054117;28;20410;-69
2020/12/30 07:56:24;;;;;;;3.50;1.87;;;;;;;;;;5052088;28;20429;-68
2020/12/30 07:58:50;;;;;;;3.23;2.10;;;;;;;;;;5052043;28;20437;-69
2020/12/30 08:01:17;;;;;;;4.20;2.27;;;;;;;;;;5049299;28;20863;-69
2020/12/30 08:03:43;;;;;;;5.23;2.30;;;;;;;;;;5053525;28;20960;-70
2020/12/30 08:06:09;;;;;;;5.47;2.60;;;;;;;;;;5053363;28;20430;-70
2020/12/30 08:08:35;;;;;;;3.27;2.13;;;;;;;;;;5048335;28;20433;-69
2020/12/30 08:11:01;;;;;;;4.70;2.00;;;;;;;;;;5052642;28;20457;-68
2020/12/30 08:13:27;;;;;;;6.77;2.63;;;;;;;;;;5053472;28;20782;-68
2020/12/30 08:15:53;;;;;;;3.30;2.33;;;;;;;;;;5052481;28;20505;-68
2020/12/30 08:18:19;;;;;;;3.47;2.00;;;;;;;;;;5053638;28;20425;-68
2020/12/30 08:20:45;;;;;;;4.40;2.83;;;;;;;;;;5051158;28;20477;-67
2020/12/30 08:23:11;;;;;;;3.00;2.00;;;;;;;;;;5052968;28;20764;-69
2020/12/30 08:25:37;;;;;;;5.13;3.20;;;;;;;;;;5052191;28;20419;-68
2020/12/30 08:28:05;;;;;;;2.27;2.00;;;;;;;;;;5053820;28;20403;-69
2020/12/30 08:30:34;;;;;;;5.60;2.85;;;;;;;;;;5051634;28;20428;-68
2020/12/30 08:33:07;;;;;;;3.00;2.23;;;;;;;;;;5051841;28;21023;-68
2020/12/30 08:35:37;;;;;;;6.20;2.87;;;;;;;;;;5052068;28;20402;-69
2020/12/30 08:38:02;;;;;;;4.40;2.40;;;;;;;;;;5053269;28;20410;-68
2020/12/30 08:40:34;;;;;;;3.13;2.00;;;;;;;;;;5052018;28;20426;-68
2020/12/30 08:43:12;;;;;;;4.50;2.00;;;;;;;;;;5053148;28;20402;-68
2020/12/30 08:45:45;;;;;;;4.53;2.40;;;;;;;;;;5052090;28;20453;-69
2020/12/30 08:48:18;;;;;;;6.97;3.63;;;;;;;;;;5052531;28;20414;-69
2020/12/30 08:50:45;;;;;;;6.90;3.37;;;;;;;;;;5050179;28;20499;-70
2020/12/30 08:53:12;;;;;;;8.20;3.17;;;;;;;;;;5052024;28;20782;-68
2020/12/30 08:55:38;;;;;;;7.00;3.10;;;;;;;;;;5051953;28;20762;-68
2020/12/30 08:58:04;;;;;;;11.37;3.90;;;;;;;;;;5052616;28;20834;-68
2020/12/30 09:00:35;;;;;;;8.87;3.27;;;;;;;;;;5051697;28;20466;-68
2020/12/30 09:03:14;;;;;;;4.73;3.60;;;;;;;;;;5052909;28;20426;-68
2020/12/30 09:05:41;;;;;;;7.07;2.77;;;;;;;;;;5051952;28;20502;-69
2020/12/30 09:08:13;;;;;;;5.40;2.60;;;;;;;;;;5051915;28;20422;-69
2020/12/30 09:10:39;;;;;;;3.23;2.20;;;;;;;;;;5046055;28;20196;-70
2020/12/30 09:13:12;;;;;;;4.53;2.20;;;;;;;;;;5052383;28;20432;-69
2020/12/30 09:15:38;;;;;;;4.60;2.90;;;;;;;;;;5051713;28;20427;-69
2020/12/30 09:18:05;;;;;;;7.90;3.10;;;;;;;;;;5052690;28;20426;-70
2020/12/30 09:20:31;;;;;;;4.50;3.10;;;;;;;;;;5051589;28;20950;-70
2020/12/30 09:23:01;;;;;;;6.60;4.00;;;;;;;;;;5062638;28;20407;-69
2020/12/30 09:25:28;;;;;;;3.60;2.00;;;;;;;;;;5047128;28;20427;-68
2020/12/30 09:27:55;;;;;;;5.00;2.70;;;;;;;;;;5048104;28;20426;-70
2020/12/30 09:30:23;;;;;;;2.50;2.07;;;;;;;;;;5042927;28;20772;-70
2020/12/30 09:32:50;;;;;;;3.23;2.30;;;;;;;;;;5043541;28;20765;-68
2020/12/30 09:35:17;;;;;;;5.03;2.57;;;;;;;;;;5070298;22;21023;-67
2020/12/30 09:37:54;;;;;;;3.17;2.00;;;;;;;;;;5053169;28;20441;-67
2020/12/30 09:40:20;;;;;;;3.53;2.67;;;;;;;;;;5052845;28;20475;-68
2020/12/30 09:42:47;;;;;;;4.80;2.60;;;;;;;;;;5048786;28;20442;-67
2020/12/30 09:45:15;;;;;;;4.03;2.47;;;;;;;;;;5054503;28;20941;-67
2020/12/30 09:47:41;;;;;;;6.50;2.53;;;;;;;;;;5050829;28;20444;-68
2020/12/30 09:50:09;;;;;;;6.80;3.03;;;;;;;;;;5053544;28;20425;-66
2020/12/30 09:52:44;;;;;;;4.63;2.70;;;;;;;;;;5053313;28;20421;-68
2020/12/30 09:55:11;;;;;;;3.70;2.60;;;;;;;;;;5049147;28;20807;-67
2020/12/30 09:57:38;;;;;;;3.60;2.00;;;;;;;;;;5047053;28;20418;-68
2020/12/30 10:00:05;;;;;;;5.77;2.60;;;;;;;;;;5050195;28;20409;-67
2020/12/30 10:02:31;;;;;;;3.10;2.20;;;;;;;;;;5052194;28;20957;-68
2020/12/30 10:04:58;;;;;;;2.30;1.67;;;;;;;;;;5055466;28;20433;-68
2020/12/30 10:07:25;;;;;;;4.83;2.40;;;;;;;;;;5054927;28;20508;-68
2020/12/30 10:09:56;;;;;;;3.37;1.97;;;;;;;;;;5054131;28;20913;-67
2020/12/30 10:12:22;;;;;;;3.50;2.27;;;;;;;;;;5053957;28;20438;-67
2020/12/30 10:14:48;;;;;;;5.33;2.87;;;;;;;;;;5055677;28;20491;-68
2020/12/30 10:17:14;;;;;;;4.27;2.37;;;;;;;;;;5054072;28;20821;-68
2020/12/30 10:19:40;;;;;;;3.20;2.00;;;;;;;;;;5055633;28;20511;-69
2020/12/30 10:22:10;;;;;;;2.83;2.30;;;;;;;;;;5053654;28;20458;-68
2020/12/30 10:24:36;;;;;;;2.27;1.77;;;;;;;;;;5055304;28;20429;-67
2020/12/30 10:27:03;;;;;;;3.70;2.43;;;;;;;;;;5054072;28;20734;-69
2020/12/30 10:29:30;;;;;;;4.27;2.13;;;;;;;;;;5055938;28;20752;-67
2020/12/30 10:31:56;;;;;;;3.77;2.37;;;;;;;;;;5054580;28;20426;-66
2020/12/30 10:34:23;;;;;;;2.63;2.20;;;;;;;;;;5055291;28;20552;-69
2020/12/30 10:36:49;;;;;;;4.07;2.30;;;;;;;;;;5054247;28;20439;-67
2020/12/30 10:39:15;;;;;;;4.20;2.47;;;;;;;;;;5055091;28;20428;-67
2020/12/30 10:41:41;;;;;;;6.13;2.00;;;;;;;;;;5054098;28;20448;-67
2020/12/30 10:44:07;;;;;;;4.13;2.43;;;;;;;;;;5053398;28;20905;-69
2020/12/30 10:46:33;;;;;;;4.20;2.90;;;;;;;;;;5053247;28;20412;-70
2020/12/30 10:48:59;;;;;;;4.60;2.30;;;;;;;;;;5053682;28;20421;-69
2020/12/30 10:51:25;;;;;;;5.20;2.77;;;;;;;;;;5054053;28;20886;-69
2020/12/30 10:53:51;;;;;;;3.80;2.03;;;;;;;;;;5053028;28;20457;-68
2020/12/30 10:56:17;;;;;;;5.80;2.43;;;;;;;;;;5052474;28;20433;-69
2020/12/30 10:58:43;;;;;;;6.68;2.65;;;;;;;;;;5052535;28;20434;-67
2020/12/30 11:01:10;;;;;;;2.30;1.70;;;;;;;;;;5054577;28;20187;-68
2020/12/30 11:03:36;;;;;;;2.80;2.00;;;;;;;;;;5052668;28;20467;-68
2020/12/30 11:06:03;;;;;;;4.70;1.93;;;;;;;;;;5054297;28;20422;-67
2020/12/30 11:08:29;;;;;;;2.67;1.90;;;;;;;;;;5053821;28;20422;-67
2020/12/30 11:10:59;;;;;;;4.27;2.20;;;;;;;;;;5053928;28;20453;-67
2020/12/30 11:13:25;;;;;;;11.03;2.13;;;;;;;;;;5050513;28;20426;-66
2020/12/30 11:15:51;;;;;;;3.40;2.23;;;;;;;;;;5054360;28;20406;-67
2020/12/30 11:18:17;;;;;;;2.47;1.43;;;;;;;;;;5052936;28;20414;-68
2020/12/30 11:20:44;;;;;;;3.10;1.93;;;;;;;;;;5052970;28;20927;-67
2020/12/30 11:23:10;;;;;;;2.33;1.67;;;;;;;;;;5049197;28;20827;-67
2020/12/30 11:25:37;;;;;;;3.30;1.90;;;;;;;;;;5052013;28;20429;-66
2020/12/30 11:28:03;;;;;;;4.10;3.13;;;;;;;;;;5052363;28;20418;-68
2020/12/30 11:30:30;;;;;;;3.20;2.10;;;;;;;;;;5053654;28;20505;-66
2020/12/30 11:32:56;;;;;;;8.00;2.23;;;;;;;;;;5053874;28;20464;-67
2020/12/30 11:35:22;;;;;;;6.50;2.40;;;;;;;;;;5053930;28;20968;-65
2020/12/30 11:37:48;;;;;;;7.40;2.53;;;;;;;;;;5051737;28;20865;-65
2020/12/30 11:40:14;;;;;;;2.17;1.83;;;;;;;;;;5054267;28;20905;-66
2020/12/30 11:42:40;;;;;;;4.00;2.30;;;;;;;;;;5054401;28;20503;-67
2020/12/30 11:45:07;;;;;;;3.23;1.90;;;;;;;;;;5053676;28;20446;-65
2020/12/30 11:47:33;;;;;;;2.90;1.60;;;;;;;;;;5053480;28;20422;-63
2020/12/30 11:49:59;;;;;;;2.00;1.40;;;;;;;;;;5053876;28;20870;-66
2020/12/30 11:52:25;;;;;;;2.23;1.83;;;;;;;;;;5052918;28;20525;-66
2020/12/30 11:54:51;;;;;;;3.90;1.90;;;;;;;;;;5054149;28;20446;-66
2020/12/30 11:57:17;;;;;;;3.37;2.40;;;;;;;;;;5051798;28;20426;-66
2020/12/30 11:59:44;;;;;;;3.90;2.00;;;;;;;;;;5053732;28;20759;-65
2020/12/30 12:02:10;;;;;;;2.70;2.23;;;;;;;;;;5053470;28;20858;-65
2020/12/30 12:04:36;;;;;;;2.23;1.70;;;;;;;;;;5053486;28;20437;-67
2020/12/30 12:07:02;;;;;;;2.40;1.67;;;;;;;;;;5052038;28;20507;-65
2020/12/30 12:09:28;;;;;;;3.10;2.00;;;;;;;;;;5037993;28;20419;-65
2020/12/30 12:11:54;;;;;;;5.13;2.57;;;;;;;;;;5046450;28;20461;-65
2020/12/30 12:14:21;;;;;;;2.43;1.63;;;;;;;;;;5051279;28;20493;-68
2020/12/30 12:16:53;;;;;;;3.53;1.90;;;;;;;;;;5051102;28;20425;-65
2020/12/30 12:19:19;;;;;;;6.00;2.13;;;;;;;;;;5053770;28;20441;-65
2020/12/30 12:21:45;;;;;;;4.93;2.10;;;;;;;;;;5052484;28;20469;-65
2020/12/30 12:24:12;;;;;;;3.87;2.20;;;;;;;;;;5053389;28;20436;-67
2020/12/30 12:26:39;;;;;;;10.13;2.13;;;;;;;;;;5052488;28;20993;-66
2020/12/30 12:29:20;;;;;;;2.73;1.80;;;;;;;;;;5053715;28;20555;-66
2020/12/30 12:31:46;;;;;;;6.20;2.40;;;;;;;;;;5052265;28;20437;-66
2020/12/30 12:34:12;;;;;;;6.20;2.20;;;;;;;;;;5053296;28;20454;-66
2020/12/30 12:36:38;;;;;;;5.40;2.17;;;;;;;;;;5053005;28;20429;-66
2020/12/30 12:39:04;;;;;;;8.03;2.37;;;;;;;;;;5053208;28;20747;-66
2020/12/30 12:41:30;;;;;;;6.57;1.90;;;;;;;;;;5052052;28;20484;-66
2020/12/30 12:43:56;;;;;;;3.43;1.80;;;;;;;;;;5053269;28;20495;-66
2020/12/30 12:46:22;;;;;;;4.40;2.30;;;;;;;;;;5050997;28;20428;-66
2020/12/30 12:48:48;;;;;;;3.67;2.43;;;;;;;;;;5053024;28;20572;-65
2020/12/30 12:51:14;;;;;;;2.73;2.10;;;;;;;;;;5050177;28;20428;-65
2020/12/30 12:53:40;;;;;;;4.17;2.20;;;;;;;;;;5053015;28;20411;-65
2020/12/30 12:56:06;;;;;;;7.30;2.37;;;;;;;;;;5052131;28;20521;-65
2020/12/30 12:58:33;;;;;;;6.40;2.73;;;;;;;;;;5053669;28;20470;-65
2020/12/30 13:00:59;;;;;;;6.93;2.87;;;;;;;;;;5051321;28;20449;-66
2020/12/30 13:03:25;;;;;;;6.17;2.40;;;;;;;;;;5051765;28;20970;-65
2020/12/30 13:05:51;;;;;;;4.43;2.57;;;;;;;;;;5052991;28;20438;-66
2020/12/30 13:08:17;;;;;;;8.37;4.97;;;;;;;;;;5052594;28;20419;-66
2020/12/30 13:10:43;;;;;;;9.33;2.70;;;;;;;;;;5055842;28;20426;-66
2020/12/30 13:13:09;;;;;;;6.57;2.87;;;;;;;;;;5056191;28;20523;-66
2020/12/30 13:15:35;;;;;;;3.40;2.70;;;;;;;;;;5055531;28;20512;-65
2020/12/30 13:18:01;;;;;;;6.37;2.70;;;;;;;;;;5053110;28;20500;-66
2020/12/30 13:20:27;;;;;;;3.73;2.63;;;;;;;;;;5056784;28;20398;-66
2020/12/30 13:22:53;;;;;;;4.03;2.57;;;;;;;;;;5056421;28;20457;-66
2020/12/30 13:25:19;;;;;;;5.57;2.70;;;;;;;;;;5055501;28;20537;-65
2020/12/30 13:27:45;;;;;;;6.60;2.70;;;;;;;;;;5055466;28;20469;-66
2020/12/30 13:30:11;;;;;;;5.57;3.47;;;;;;;;;;5056524;28;20898;-66
2020/12/30 13:32:37;;;;;;;4.23;2.40;;;;;;;;;;5055499;28;20434;-65
2020/12/30 13:35:03;;;;;;;8.03;3.30;;;;;;;;;;5056383;28;20453;-65
2020/12/30 13:37:29;;;;;;;4.67;2.40;;;;;;;;;;5055436;28;20429;-66
2020/12/30 13:39:55;;;;;;;4.20;2.33;;;;;;;;;;5056384;28;20408;-65
2020/12/30 13:42:21;;;;;;;4.33;3.20;;;;;;;;;;5055428;28;20799;-65
2020/12/30 13:44:47;;;;;;;5.27;3.63;;;;;;;;;;5056727;28;20428;-66
2020/12/30 13:47:13;;;;;;;5.40;2.57;;;;;;;;;;5055953;28;20434;-66
2020/12/30 13:49:40;;;;;;;7.10;3.10;;;;;;;;;;5056300;28;20398;-66
2020/12/30 13:52:06;;;;;;;4.43;2.80;;;;;;;;;;5055553;28;20422;-66
2020/12/30 13:54:32;;;;;;;4.50;2.93;;;;;;;;;;5055069;28;20804;-66
2020/12/30 13:56:58;;;;;;;5.80;2.70;;;;;;;;;;5055308;28;20480;-66
2020/12/30 13:59:24;;;;;;;8.37;2.20;;;;;;;;;;5053613;28;20425;-66
2020/12/30 14:01:54;;;;;;;12.17;3.20;;;;;;;;;;5054129;28;20560;-66
2020/12/30 14:04:20;;;;;;;3.80;2.70;;;;;;;;;;5056281;28;20426;-66
2020/12/30 14:06:46;;;;;;;3.73;2.40;;;;;;;;;;5055154;28;20906;-66
2020/12/30 14:09:12;;;;;;;4.93;2.20;;;;;;;;;;5055959;28;20394;-66
2020/12/30 14:11:38;;;;;;;3.03;2.73;;;;;;;;;;5055567;28;20429;-65
2020/12/30 14:14:04;;;;;;;6.30;2.57;;;;;;;;;;5056120;28;20460;-65
2020/12/30 14:16:30;;;;;;;3.63;2.43;;;;;;;;;;5054935;28;20418;-65
2020/12/30 14:18:56;;;;;;;6.30;2.37;;;;;;;;;;5053145;28;20459;-64
2020/12/30 14:21:22;;;;;;;6.23;3.13;;;;;;;;;;5053601;28;20452;-68
2020/12/30 14:23:48;;;;;;;3.40;2.30;;;;;;;;;;5054695;28;20425;-66
2020/12/30 14:26:21;;;;;;;8.23;3.10;;;;;;;;;;5054899;28;20417;-66
2020/12/30 14:28:47;;;;;;;3.27;2.20;;;;;;;;;;5054439;28;20961;-66
2020/12/30 14:31:16;;;;;;;4.20;2.37;;;;;;;;;;5055336;28;20403;-66
2020/12/30 14:33:42;;;;;;;6.93;2.33;;;;;;;;;;5053209;28;20531;-66
2020/12/30 14:36:09;;;;;;;5.20;2.27;;;;;;;;;;5054738;28;20403;-66
2020/12/30 14:38:35;;;;;;;3.50;2.40;;;;;;;;;;5053505;28;20440;-65
2020/12/30 14:41:01;;;;;;;3.33;2.17;;;;;;;;;;5054626;28;20961;-65
2020/12/30 14:43:27;;;;;;;3.30;2.20;;;;;;;;;;5051024;28;20484;-65